Battle Harbour, Canada
Current Conditions -  °F | °C
As of 3:00 PM on Saturday 25 Oct 2014 (Local Time) from CYMH Reporting Station
Overcast Overcast  
Wind Chill: 28°   Ceiling: 2900
Heat Index: 37°   Visibility: 9mi
Dew Point: 27°   Wind: 17mph
Humidity: 65%   Direction: 40°NE
Pressure: 29.84"   Gusts: 23mph
Location:  52.27°N, 55.58°W
Report Text: CYMH 251800Z AUTO 04015G20KT 9SM OVC029 03/M03 A2984 RMK SLP106
Loading
Personal Weather Stations






























Interactive Weather Map New forecast layout! Learn more

10-Day Weather Forecast

Advertisements
Track Severe Weather on mobile